Time;durP1;ratioP1;P1;durP2;ratioP2;P2;SDS_P1;SDS_P2;PMS_P1;PMS_P2;Temp;Humidity;BMP_temperature;BMP_pressure;BME280_temperature;BME280_humidity;BME280_pressure;Samples;Min_cycle;Max_cycle;Signal;HPM_P1;HPM_P2
2023/02/21 02:16:13;;;;;;;19.23;10.80;;;;;;;4.50;66.07;100751.63;5000738;28;20130;-86
2023/02/21 02:19:08;;;;;;;23.33;10.25;;;;;;;4.60;65.87;100768.56;4997274;28;20045;-85
2023/02/21 02:21:57;;;;;;;16.13;9.73;;;;;;;4.58;65.89;100753.69;4991043;28;20049;-87
2023/02/21 02:24:41;;;;;;;16.80;8.75;;;;;;;4.74;65.41;100764.81;4994402;28;20065;-86
2023/02/21 02:27:17;;;;;;;19.10;9.10;;;;;;;4.76;65.32;100765.56;4998734;28;20061;-85
2023/02/21 02:30:10;;;;;;;16.17;8.68;;;;;;;4.69;65.58;100751.03;5005033;28;20498;-86
2023/02/21 02:32:56;;;;;;;15.35;8.95;;;;;;;4.64;65.45;100742.56;4976351;28;20030;-86
2023/02/21 02:36:04;;;;;;;15.73;8.30;;;;;;;4.63;65.45;100728.38;4989871;28;20107;-87
2023/02/21 02:39:01;;;;;;;7.97;4.97;;;;;;;4.81;64.67;100728.75;5009732;28;20093;-86
2023/02/21 02:42:21;;;;;;;8.68;3.30;;;;;;;5.23;63.05;100728.94;5014136;28;20034;-87
2023/02/21 02:44:56;;;;;;;8.25;2.83;;;;;;;5.45;61.85;100719.16;5004140;28;20037;-85
2023/02/21 02:47:24;;;;;;;5.10;2.50;;;;;;;5.84;60.66;100730.19;5005443;28;20048;-87
2023/02/21 02:49:49;;;;;;;6.28;2.47;;;;;;;5.99;59.92;100734.22;4977185;28;20045;-86
2023/02/21 02:52:16;;;;;;;5.65;2.58;;;;;;;5.91;59.66;100716.19;4999657;28;20030;-85
2023/02/21 02:54:41;;;;;;;6.15;2.40;;;;;;;5.96;59.35;100715.81;5020596;28;20573;-86
2023/02/21 02:57:11;;;;;;;8.25;2.30;;;;;;;6.31;58.76;100758.19;5019973;28;20037;-87
2023/02/21 02:59:52;;;;;;;3.40;1.98;;;;;;;6.36;58.17;100728.44;4979400;28;20114;-86
2023/02/21 03:02:34;;;;;;;4.35;1.98;;;;;;;6.66;57.36;100740.97;5000368;28;20038;-87
2023/02/21 03:05:11;;;;;;;3.85;1.80;;;;;;;6.60;57.13;100719.28;5008834;28;20064;-85
2023/02/21 03:07:49;;;;;;;4.63;2.20;;;;;;;6.77;56.71;100729.34;4999196;28;20445;-87
2023/02/21 03:10:40;;;;;;;5.80;2.40;;;;;;;6.78;56.42;100728.34;4991921;28;20481;-88
2023/02/21 03:13:13;;;;;;;5.30;2.17;;;;;;;6.89;56.42;100735.44;4994366;28;20026;-88
2023/02/21 03:15:51;;;;;;;4.22;2.10;;;;;;;6.97;56.00;100731.09;4995452;28;20130;-87
2023/02/21 03:18:25;;;;;;;5.13;1.90;;;;;;;6.95;56.04;100724.19;4991034;28;20030;-87
2023/02/21 03:20:55;;;;;;;6.57;2.38;;;;;;;6.78;56.13;100701.63;4990881;28;20038;-87
2023/02/21 03:23:20;;;;;;;6.72;3.33;;;;;;;6.96;56.69;100726.75;4961258;28;20100;-86
2023/02/21 03:25:46;;;;;;;6.47;3.15;;;;;;;6.68;57.32;100706.09;4990765;28;20222;-86
2023/02/21 03:28:12;;;;;;;6.72;3.70;;;;;;;6.56;57.46;100700.00;4956594;28;20038;-86
2023/02/21 03:30:38;;;;;;;4.45;2.28;;;;;;;6.61;56.98;100715.63;4996376;28;20042;-88
2023/02/21 03:35:31;;;;;;;4.65;1.65;;;;;;;6.70;56.32;100725.53;5004632;28;20057;-87
2023/02/21 03:37:57;;;;;;;2.58;1.38;;;;;;;6.76;56.33;100722.28;4995410;28;20068;-85
2023/02/21 03:40:25;;;;;;;8.77;2.00;;;;;;;6.81;56.14;100737.94;5007281;28;20045;-88
2023/02/21 03:42:54;;;;;;;4.15;1.90;;;;;;;6.82;55.86;100728.94;5001371;28;20030;-87
2023/02/21 03:45:20;;;;;;;4.57;1.60;;;;;;;6.84;55.93;100733.19;5007031;28;20073;-85
2023/02/21 03:47:46;;;;;;;4.40;1.58;;;;;;;6.89;55.89;100741.63;4984134;28;20431;-86
2023/02/21 03:50:12;;;;;;;3.13;1.80;;;;;;;6.94;55.67;100728.69;5004325;28;20097;-86
2023/02/21 03:52:38;;;;;;;5.18;1.77;;;;;;;6.84;55.52;100738.53;4994030;28;20041;-87
2023/02/21 03:55:06;;;;;;;4.10;1.80;;;;;;;6.86;55.62;100749.06;4990824;28;20069;-86
2023/02/21 03:57:35;;;;;;;3.72;1.65;;;;;;;6.78;55.42;100720.34;5004465;28;20797;-89
2023/02/21 04:00:01;;;;;;;3.28;1.80;;;;;;;6.98;55.32;100746.16;4996580;28;20126;-87
2023/02/21 04:02:28;;;;;;;4.60;1.80;;;;;;;6.95;55.09;100734.88;5005711;28;20132;-87
2023/02/21 04:04:55;;;;;;;3.58;1.73;;;;;;;6.90;55.07;100727.28;4970474;28;20030;-87
2023/02/21 04:07:23;;;;;;;4.60;1.88;;;;;;;6.94;55.00;100734.03;4997013;28;20607;-88
2023/02/21 04:09:48;;;;;;;4.10;1.90;;;;;;;7.07;54.77;100732.94;4984694;28;20045;-86
2023/02/21 04:12:15;;;;;;;3.72;1.83;;;;;;;7.00;54.59;100715.75;4987799;28;20116;-87
2023/02/21 04:14:40;;;;;;;4.25;1.83;;;;;;;7.04;54.55;100723.38;5010344;28;20045;-89
2023/02/21 04:17:06;;;;;;;;;;;;;;;7.18;54.31;100725.66;5002863;28;20073;-88
2023/02/21 04:19:32;;;;;;;3.58;1.80;;;;;;;7.10;53.90;100689.91;5008434;28;20363;-88
2023/02/21 04:21:57;;;;;;;3.03;1.60;;;;;;;7.25;53.54;100709.91;5010229;28;20045;-87
2023/02/21 04:24:26;;;;;;;4.07;1.83;;;;;;;7.28;53.40;100685.59;4988436;28;20129;-88
2023/02/21 04:26:52;;;;;;;3.60;1.55;;;;;;;7.49;52.93;100700.66;4998914;28;20590;-87
2023/02/21 04:29:18;;;;;;;2.58;1.40;;;;;;;7.43;52.88;100690.53;5009233;28;20061;-87
2023/02/21 04:31:44;;;;;;;3.47;1.90;;;;;;;7.42;52.53;100670.09;4992418;28;20343;-89
2023/02/21 04:34:10;;;;;;;3.67;1.50;;;;;;;7.40;52.37;100660.41;5008744;28;20037;-87
2023/02/21 04:36:37;;;;;;;5.95;1.95;;;;;;;7.57;52.36;100682.06;4984188;28;20046;-88
2023/02/21 04:39:03;;;;;;;;;;;;;;;7.71;52.03;100688.84;4987108;28;20057;-86
2023/02/21 04:41:29;;;;;;;4.07;1.95;;;;;;;7.58;52.04;100665.03;4998487;28;20023;-89
2023/02/21 04:43:54;;;;;;;6.28;2.38;;;;;;;7.57;51.93;100656.16;4984211;28;20030;-87
2023/02/21 04:46:21;;;;;;;5.90;2.08;;;;;;;7.63;51.92;100654.75;4998165;28;20038;-88
2023/02/21 04:48:50;;;;;;;6.85;2.28;;;;;;;7.74;51.76;100667.13;4976545;28;20050;-87
2023/02/21 04:51:20;;;;;;;4.25;2.03;;;;;;;7.82;51.60;100681.50;5009288;28;20123;-88
2023/02/21 04:53:48;;;;;;;4.45;1.90;;;;;;;7.78;51.54;100663.19;5005230;28;20037;-88
2023/02/21 04:56:14;;;;;;;4.80;2.35;;;;;;;7.71;51.61;100652.22;5003017;28;20078;-89
2023/02/21 04:58:41;;;;;;;4.07;2.00;;;;;;;7.84;51.89;100684.00;5009162;28;20052;-88
2023/02/21 05:01:07;;;;;;;13.05;2.30;;;;;;;7.85;51.74;100688.41;5001747;28;20038;-89
2023/02/21 05:03:33;;;;;;;4.28;2.22;;;;;;;7.77;51.53;100662.34;4971642;28;20037;-89
2023/02/21 05:06:01;;;;;;;;;;;;;;;8.00;51.37;100688.78;5000519;28;20041;-88
2023/02/21 05:08:27;;;;;;;7.10;2.20;;;;;;;7.88;50.95;100653.31;5003746;28;19921;-87
2023/02/21 05:10:54;;;;;;;5.63;2.50;;;;;;;8.04;50.96;100653.56;5002877;28;20034;-87
2023/02/21 05:13:22;;;;;;;3.67;2.00;;;;;;;8.10;50.77;100670.91;4986944;28;20034;-87
2023/02/21 05:15:48;;;;;;;8.48;2.95;;;;;;;8.17;50.39;100658.63;4989685;28;20049;-86
2023/02/21 05:18:21;;;;;;;6.07;2.33;;;;;;;8.23;50.25;100667.88;4985737;28;20034;-88
2023/02/21 05:20:52;;;;;;;6.63;2.42;;;;;;;8.37;49.93;100685.31;4976059;28;20034;-90
2023/02/21 05:23:32;;;;;;;11.40;2.70;;;;;;;8.52;50.02;100701.78;4982434;28;20062;-90
2023/02/21 05:26:10;;;;;;;7.45;2.30;;;;;;;8.55;49.72;100691.66;4988151;28;20038;-85
2023/02/21 05:28:36;;;;;;;6.70;2.53;;;;;;;8.36;49.65;100670.25;4979417;28;20033;-91
2023/02/21 05:31:03;;;;;;;7.60;2.40;;;;;;;8.51;49.12;100660.75;4993459;28;20422;-89
2023/02/21 05:33:29;;;;;;;7.15;2.47;;;;;;;8.79;49.32;100690.28;5017558;28;20145;-88
2023/02/21 05:35:58;;;;;;;14.95;3.33;;;;;;;8.91;48.71;100686.38;4995962;28;20028;-89
2023/02/21 05:38:27;;;;;;;7.50;3.50;;;;;;;8.77;48.83;100660.09;5001153;28;20116;-89
2023/02/21 05:40:53;;;;;;;7.32;2.90;;;;;;;8.87;48.58;100660.88;4998497;28;20380;-89
2023/02/21 05:43:20;;;;;;;16.27;3.83;;;;;;;8.92;48.59;100680.06;4989831;28;20054;-88
2023/02/21 05:45:47;;;;;;;13.95;4.25;;;;;;;8.95;48.51;100663.66;5000931;28;20117;-88
2023/02/21 05:48:12;;;;;;;15.35;4.70;;;;;;;8.95;48.91;100663.66;5014418;28;20022;-86
2023/02/21 05:50:45;;;;;;;11.73;4.95;;;;;;;9.14;48.53;100672.56;4967292;28;20042;-88
2023/02/21 05:53:12;;;;;;;7.50;3.40;;;;;;;9.17;48.21;100691.03;4984873;28;20042;-88
2023/02/21 05:55:40;;;;;;;12.75;3.60;;;;;;;9.20;48.69;100682.69;4998658;28;20033;-83
2023/02/21 05:58:06;;;;;;;9.23;3.33;;;;;;;9.34;48.84;100695.59;4974529;28;20053;-83
2023/02/21 06:00:33;;;;;;;12.02;3.95;;;;;;;9.28;48.38;100680.09;4971104;28;20498;-86
2023/02/21 06:03:01;;;;;;;13.40;3.45;;;;;;;9.44;47.89;100687.47;4979904;28;20097;-90
2023/02/21 06:05:28;;;;;;;14.82;3.70;;;;;;;9.62;47.10;100682.09;4954308;28;20123;-87
2023/02/21 06:07:55;;;;;;;13.82;5.30;;;;;;;9.95;46.70;100685.91;4985464;28;20138;-85
2023/02/21 06:10:21;;;;;;;8.68;3.63;;;;;;;12.35;41.45;100701.59;5008995;28;20038;-85
2023/02/21 06:12:49;;;;;;;12.70;3.40;;;;;;;14.84;37.52;100687.91;4987039;28;20402;-86
2023/02/21 06:15:15;;;;;;;8.88;3.42;;;;;;;16.41;33.73;100690.75;4982690;28;20505;-88
2023/02/21 06:17:44;;;;;;;10.63;3.60;;;;;;;17.71;31.21;100698.00;5022429;28;20088;-89
2023/02/21 06:20:15;;;;;;;7.82;3.30;;;;;;;18.72;29.42;100694.19;5013281;28;20117;-86
2023/02/21 06:22:41;;;;;;;6.35;3.25;;;;;;;19.49;27.79;100688.03;4985202;28;20052;-83
2023/02/21 06:25:09;;;;;;;15.95;3.80;;;;;;;21.04;25.86;100682.63;5005113;28;20073;-86
2023/02/21 06:27:35;;;;;;;8.55;4.05;;;;;;;20.97;26.05;100697.47;5004155;28;20145;-86
2023/02/21 06:30:03;;;;;;;7.18;3.35;;;;;;;21.59;24.81;100681.72;5002432;28;20057;-84
2023/02/21 06:32:30;;;;;;;10.88;3.30;;;;;;;22.77;23.37;100665.38;5026896;28;20025;-91
2023/02/21 06:34:57;;;;;;;7.18;3.58;;;;;;;23.95;22.07;100682.22;5012149;28;20046;-86
2023/02/21 06:37:22;;;;;;;9.95;3.70;;;;;;;23.43;22.01;100679.59;5000290;28;20069;-87
2023/02/21 06:39:54;;;;;;;7.45;3.50;;;;;;;23.59;22.07;100669.72;4973708;28;20454;-83
2023/02/21 06:42:21;;;;;;;11.35;3.55;;;;;;;23.81;21.99;100675.34;4999706;28;20032;-90
2023/02/21 06:44:49;;;;;;;7.10;2.97;;;;;;;24.43;21.10;100682.66;4969834;28;20042;-85
2023/02/21 06:47:15;;;;;;;7.68;3.08;;;;;;;23.27;22.18;100689.47;5006678;28;20050;-83
2023/02/21 06:49:44;;;;;;;7.15;3.03;;;;;;;21.82;24.21;100688.31;4998368;28;20115;-87
2023/02/21 06:52:12;;;;;;;11.23;3.83;;;;;;;21.54;24.58;100684.31;5016975;28;20045;-84
2023/02/21 06:54:39;;;;;;;10.68;4.88;;;;;;;21.00;24.79;100677.84;5005605;28;20469;-83
2023/02/21 06:57:04;;;;;;;10.68;5.38;;;;;;;19.79;26.66;100674.63;4997958;28;20054;-83
2023/02/21 06:59:30;;;;;;;13.60;5.65;;;;;;;20.27;26.19;100684.09;4986573;28;20030;-82
2023/02/21 07:01:57;;;;;;;14.38;6.07;;;;;;;20.24;25.90;100685.38;4992042;28;20153;-82
2023/02/21 07:04:23;;;;;;;10.50;5.78;;;;;;;20.81;25.35;100675.16;5010049;28;20502;-79
2023/02/21 07:06:50;;;;;;;14.93;5.70;;;;;;;22.03;23.90;100687.78;5004353;28;20026;-86
2023/02/21 07:09:17;;;;;;;11.95;5.43;;;;;;;21.71;24.25;100682.59;5001663;28;20026;-86
2023/02/21 07:11:43;;;;;;;10.80;5.55;;;;;;;21.84;23.86;100664.28;5009903;28;20127;-85
2023/02/21 07:14:10;;;;;;;9.15;6.30;;;;;;;20.45;25.60;100654.91;5008427;28;20434;-87
2023/02/21 07:16:36;;;;;;;15.90;6.68;;;;;;;21.75;24.04;100679.38;5000824;28;20443;-84
2023/02/21 07:19:03;;;;;;;13.23;6.60;;;;;;;22.03;23.64;100676.81;4980290;28;20038;-84
2023/02/21 07:21:37;;;;;;;12.65;5.75;;;;;;;23.35;22.06;100653.41;5003633;28;20049;-90
2023/02/21 07:24:04;;;;;;;12.55;5.25;;;;;;;22.99;22.25;100629.09;4993252;28;20051;-88
2023/02/21 07:26:36;;;;;;;9.10;5.50;;;;;;;22.83;22.84;100656.19;5006583;28;20061;-90
2023/02/21 07:29:06;;;;;;;11.35;5.63;;;;;;;22.59;22.67;100627.97;4963689;28;20034;-93
2023/02/21 07:31:34;;;;;;;9.80;4.80;;;;;;;23.37;22.00;100648.50;4994617;28;20038;-87
2023/02/21 07:34:01;;;;;;;10.57;4.53;;;;;;;22.81;22.66;100650.13;4992107;28;20026;-85
2023/02/21 07:36:28;;;;;;;12.40;4.70;;;;;;;23.15;21.76;100628.31;4982992;28;20038;-87
2023/02/21 07:38:54;;;;;;;13.40;4.82;;;;;;;23.77;21.28;100644.00;4996080;28;20052;-87
2023/02/21 07:41:27;;;;;;;10.98;4.43;;;;;;;23.36;21.89;100635.84;5020664;28;20041;-92
2023/02/21 07:44:19;;;;;;;12.23;4.20;;;;;;;23.59;21.17;100634.88;5012355;28;20037;-88
2023/02/21 07:46:46;;;;;;;8.73;3.92;;;;;;;22.28;22.82;100631.97;5014348;28;20042;-86
2023/02/21 07:49:11;;;;;;;6.85;4.10;;;;;;;21.79;23.29;100625.84;4982309;28;20045;-86
2023/02/21 07:51:39;;;;;;;10.05;4.70;;;;;;;21.49;23.90;100616.66;5011585;28;20021;-88
2023/02/21 07:54:07;;;;;;;10.82;4.63;;;;;;;22.23;23.13;100599.00;5011095;28;20034;-91
2023/02/21 08:00:11;;;;;;;11.43;4.40;;;;;;;22.75;22.54;100605.31;4996884;28;20119;-91
2023/02/21 08:02:36;;;;;;;9.80;2.92;;;;;;;22.27;22.73;100598.28;4991781;28;20062;-93
2023/02/21 08:05:45;;;;;;;11.23;2.95;;;;;;;21.69;23.13;100580.75;5010331;28;20061;-92
2023/02/21 08:08:16;;;;;;;5.15;2.75;;;;;;;20.80;23.98;100569.66;5023199;28;20045;-91
2023/02/21 08:10:52;;;;;;;4.55;2.65;;;;;;;20.39;24.86;100571.19;5009315;28;20037;-90
2023/02/21 08:13:20;;;;;;;4.63;2.90;;;;;;;20.83;24.52;100590.22;5015118;28;20108;-83
2023/02/21 08:15:45;;;;;;;11.75;3.05;;;;;;;19.84;25.68;100600.31;4987361;28;20499;-87
2023/02/21 08:18:19;;;;;;;13.65;2.80;;;;;;;20.29;24.82;100564.59;5003676;28;20096;-85
2023/02/21 08:20:48;;;;;;;13.13;3.00;;;;;;;20.11;25.44;100598.16;5010191;28;20470;-87
2023/02/21 08:23:17;;;;;;;7.00;2.95;;;;;;;19.97;25.76;100602.91;5008452;28;20040;-87
2023/02/21 08:25:46;;;;;;;8.65;2.70;;;;;;;20.30;25.30;100613.50;4972987;28;20030;-89
2023/02/21 08:28:12;;;;;;;7.80;2.80;;;;;;;21.24;25.07;100580.41;4975044;28;20042;-83
2023/02/21 08:30:38;;;;;;;9.68;2.90;;;;;;;22.51;24.06;100547.00;4974854;28;20395;-86
2023/02/21 08:33:05;;;;;;;6.38;2.90;;;;;;;23.15;21.90;100578.97;4994955;28;20034;-80
2023/02/21 08:35:31;;;;;;;10.13;2.63;;;;;;;22.68;22.27;100581.88;5001722;28;20038;-79
2023/02/21 08:38:01;;;;;;;6.75;2.85;;;;;;;23.04;22.38;100575.22;4996983;28;20124;-91
2023/02/21 08:40:29;;;;;;;8.98;4.05;;;;;;;23.70;21.53;100570.03;4991282;28;20033;-90
2023/02/21 08:42:56;;;;;;;7.60;3.00;;;;;;;22.11;23.30;100569.69;5004519;28;20101;-87
2023/02/21 08:45:24;;;;;;;4.45;2.67;;;;;;;22.05;23.05;100556.94;5017664;28;20069;-89
2023/02/21 08:47:51;;;;;;;8.63;3.38;;;;;;;22.08;23.24;100558.41;4996853;28;20502;-89
2023/02/21 08:50:19;;;;;;;7.57;2.75;;;;;;;21.35;24.22;100554.16;4986155;28;20073;-85
2023/02/21 08:52:47;;;;;;;10.63;3.10;;;;;;;20.74;24.94;100545.16;5004371;28;20053;-83
2023/02/21 08:55:13;;;;;;;8.02;2.90;;;;;;;20.87;24.50;100573.13;4995932;28;20143;-84
2023/02/21 08:57:38;;;;;;;7.70;2.72;;;;;;;21.34;24.22;100563.44;5004409;28;20033;-83
2023/02/21 09:00:09;;;;;;;13.00;3.42;;;;;;;21.23;24.55;100568.63;4995001;28;20065;-87
2023/02/21 09:02:39;;;;;;;9.93;3.78;;;;;;;21.39;24.53;100555.34;4998795;28;20173;-77
2023/02/21 09:05:27;;;;;;;6.35;3.15;;;;;;;20.39;25.01;100556.69;4989502;28;20025;-78
2023/02/21 09:08:00;;;;;;;10.10;3.15;;;;;;;20.92;24.84;100563.41;4984475;28;20036;-84
2023/02/21 09:10:27;;;;;;;8.70;3.33;;;;;;;20.48;25.53;100559.97;5001472;28;20092;-79
2023/02/21 09:12:52;;;;;;;6.70;3.00;;;;;;;19.88;25.93;100556.00;5000743;28;20064;-79
2023/02/21 09:15:18;;;;;;;9.25;3.20;;;;;;;19.15;27.11;100551.97;4989537;28;20204;-80
2023/02/21 09:17:44;;;;;;;20.63;4.75;;;;;;;19.35;27.03;100540.06;4993418;28;20043;-80
2023/02/21 09:20:10;;;;;;;17.33;4.03;;;;;;;19.33;27.05;100536.72;4998840;28;20336;-75
2023/02/21 09:22:36;;;;;;;18.10;4.68;;;;;;;19.28;27.09;100551.00;4995174;28;20038;-82
2023/02/21 09:25:01;;;;;;;11.93;3.22;;;;;;;18.93;27.77;100553.34;4969485;28;20067;-77
2023/02/21 09:27:36;;;;;;;8.52;3.40;;;;;;;19.70;26.94;100534.16;5011731;28;20121;-77
2023/02/21 09:30:07;;;;;;;20.13;4.05;;;;;;;19.19;27.04;100528.63;5011686;28;20137;-86
2023/02/21 09:32:32;;;;;;;17.75;3.15;;;;;;;19.61;26.69;100528.94;5012792;28;20037;-86
2023/02/21 09:35:03;;;;;;;22.88;4.00;;;;;;;19.68;26.96;100536.22;5008273;28;20046;-89
2023/02/21 09:37:32;;;;;;;5.55;2.88;;;;;;;19.60;26.11;100508.19;4996554;28;20959;-88
2023/02/21 09:39:58;;;;;;;12.77;3.00;;;;;;;18.56;27.54;100512.25;4996376;28;20049;-85
2023/02/21 09:42:29;;;;;;;8.63;3.05;;;;;;;18.52;27.53;100502.88;4982930;28;20355;-89
2023/02/21 09:44:58;;;;;;;9.15;2.90;;;;;;;18.27;28.07;100487.25;4988929;28;20050;-81
2023/02/21 09:47:36;;;;;;;10.07;3.25;;;;;;;19.01;27.53;100523.13;4995409;28;20034;-92
2023/02/21 09:50:14;;;;;;;14.95;3.00;;;;;;;18.56;27.85;100499.47;4982461;28;20041;-83
2023/02/21 09:52:41;;;;;;;6.35;2.50;;;;;;;18.57;27.79;100500.31;4987571;28;20502;-88
2023/02/21 09:55:12;;;;;;;5.63;2.72;;;;;;;18.52;27.63;100502.88;4998629;28;20053;-83
2023/02/21 09:57:39;;;;;;;9.50;2.80;;;;;;;18.06;28.17;100493.81;5005112;28;20042;-88
2023/02/21 10:00:19;;;;;;;;;;;;;;;18.55;28.11;100488.81;4994329;28;20084;-84
2023/02/21 10:03:05;;;;;;;5.80;2.92;;;;;;;18.95;27.17;100466.78;5009562;28;19929;-82
2023/02/21 10:05:55;;;;;;;6.35;2.90;;;;;;;19.25;26.78;100458.81;4998970;28;20136;-81
2023/02/21 10:08:41;;;;;;;6.95;2.78;;;;;;;19.42;26.94;100464.53;5005096;28;20030;-81
2023/02/21 10:11:16;;;;;;;5.50;2.58;;;;;;;19.63;26.56;100448.81;5007995;28;20046;-85
2023/02/21 10:13:43;;;;;;;6.72;2.47;;;;;;;19.98;25.66;100436.25;5007994;28;20034;-80
2023/02/21 10:16:20;;;;;;;7.72;2.97;;;;;;;20.29;25.49;100448.03;5005452;28;20030;-81
2023/02/21 10:19:00;;;;;;;5.65;2.33;;;;;;;20.40;25.12;100427.31;5016667;28;20094;-87
2023/02/21 10:21:29;;;;;;;10.18;3.03;;;;;;;20.00;25.39;100428.69;5016824;28;20048;-84
2023/02/21 10:23:59;;;;;;;8.75;2.80;;;;;;;20.28;25.25;100424.56;5016671;28;20188;-84
2023/02/21 10:26:34;;;;;;;11.80;2.80;;;;;;;20.80;24.64;100416.66;5008385;28;20602;-88
2023/02/21 10:29:00;;;;;;;8.13;2.58;;;;;;;20.60;24.70;100406.06;5009023;28;20045;-89
2023/02/21 10:31:38;;;;;;;10.85;2.42;;;;;;;20.61;24.82;100390.50;5007001;28;20041;-87
2023/02/21 10:34:22;;;;;;;13.90;2.88;;;;;;;20.95;23.78;100350.63;5002767;28;20474;-86
2023/02/21 10:36:50;;;;;;;10.55;2.92;;;;;;;21.78;23.08;100364.25;4988055;28;20026;-87
2023/02/21 10:39:20;;;;;;;6.80;2.78;;;;;;;23.27;22.60;100354.88;4991893;28;20066;-88
2023/02/21 10:41:48;;;;;;;8.52;2.90;;;;;;;24.01;21.17;100342.63;4999949;28;20123;-86
2023/02/21 10:44:21;;;;;;;11.77;3.00;;;;;;;24.56;20.77;100351.72;5024100;28;20042;-87
2023/02/21 10:47:18;;;;;;;6.10;2.25;;;;;;;23.54;20.71;100333.00;4999745;28;20038;-85
2023/02/21 10:50:08;;;;;;;11.98;2.38;;;;;;;24.56;20.32;100316.84;5011435;28;20052;-86
2023/02/21 10:52:47;;;;;;;7.53;2.30;;;;;;;24.50;19.95;100328.88;5006637;28;20041;-87
2023/02/21 10:55:20;;;;;;;14.40;2.70;;;;;;;24.48;20.30;100331.03;5010110;28;20050;-81
2023/02/21 10:57:51;;;;;;;9.55;2.63;;;;;;;23.35;21.40;100309.69;4996848;28;20117;-81
2023/02/21 11:00:33;;;;;;;7.10;2.38;;;;;;;23.41;21.40;100324.31;4985391;28;20022;-82
2023/02/21 11:03:12;;;;;;;11.65;2.40;;;;;;;23.51;21.22;100324.47;5001231;28;20202;-79
2023/02/21 11:05:38;;;;;;;11.75;2.38;;;;;;;24.07;20.66;100314.16;4990700;28;20045;-78
2023/02/21 11:08:09;;;;;;;12.70;2.70;;;;;;;23.86;20.20;100309.50;5002655;28;20042;-82
2023/02/21 11:10:41;;;;;;;16.83;3.03;;;;;;;22.76;21.29;100311.03;4982759;28;20037;-83
2023/02/21 11:13:21;;;;;;;14.57;2.30;;;;;;;21.80;22.52;100334.75;5007520;28;20034;-85
2023/02/21 11:15:47;;;;;;;16.08;2.50;;;;;;;21.58;22.70;100343.59;4995795;28;20142;-82
2023/02/21 11:18:24;;;;;;;14.38;2.88;;;;;;;20.98;23.34;100330.22;5004265;28;20499;-82
2023/02/21 11:20:50;;;;;;;12.98;4.43;;;;;;;20.77;23.58;100318.78;5005914;28;20960;-80
2023/02/21 11:23:24;;;;;;;24.98;6.50;;;;;;;20.82;23.13;100316.19;4988353;28;20539;-83
2023/02/21 11:26:11;;;;;;;21.95;6.32;;;;;;;20.75;24.28;100309.19;5006142;28;20944;-81
2023/02/21 11:28:43;;;;;;;16.27;5.40;;;;;;;20.72;23.73;100332.34;4995530;28;20034;-83
2023/02/21 11:31:29;;;;;;;21.52;4.53;;;;;;;20.83;23.35;100306.91;4973846;28;20034;-82
2023/02/21 11:33:57;;;;;;;25.83;3.20;;;;;;;20.41;23.17;100320.59;5005822;28;20129;-82
2023/02/21 11:36:41;;;;;;;22.98;2.85;;;;;;;19.96;23.70;100291.03;4992391;28;20117;-84
2023/02/21 11:39:26;;;;;;;23.02;4.93;;;;;;;20.05;23.54;100307.09;4959526;28;20481;-82
2023/02/21 11:41:56;;;;;;;32.65;6.88;;;;;;;19.79;23.17;100290.03;5001526;28;20094;-81
2023/02/21 11:44:37;;;;;;;21.23;5.00;;;;;;;19.69;23.73;100317.88;4992521;28;20025;-80
2023/02/21 11:47:13;;;;;;;26.15;4.07;;;;;;;19.10;24.14;100325.59;4996884;28;20164;-80
2023/02/21 11:49:54;;;;;;;14.98;2.80;;;;;;;19.17;24.16;100280.06;4965191;28;20034;-82
2023/02/21 11:52:25;;;;;;;18.83;2.45;;;;;;;19.08;24.34;100316.84;4997113;28;20053;-80
2023/02/21 11:54:53;;;;;;;19.88;1.90;;;;;;;19.05;24.43;100309.09;4993827;28;20030;-82
2023/02/21 11:57:24;;;;;;;30.92;2.17;;;;;;;19.01;24.72;100298.88;5008628;28;20048;-81
2023/02/21 11:59:59;;;;;;;15.80;2.00;;;;;;;19.13;24.60;100311.56;4992830;28;20034;-82
2023/02/21 12:02:48;;;;;;;20.52;2.15;;;;;;;19.28;24.64;100299.44;5007738;28;20056;-81
2023/02/21 12:05:31;;;;;;;13.52;2.78;;;;;;;19.19;24.57;100294.28;4999375;28;20513;-79
2023/02/21 12:08:24;;;;;;;27.42;2.10;;;;;;;19.22;24.76;100295.72;4987585;28;20544;-80
2023/02/21 12:11:26;;;;;;;13.00;1.90;;;;;;;19.23;24.41;100296.56;4997698;28;20030;-81
2023/02/21 12:13:56;;;;;;;11.27;1.85;;;;;;;19.31;24.39;100288.09;5001893;28;20509;-81
2023/02/21 12:16:36;;;;;;;15.82;1.90;;;;;;;19.10;24.52;100294.81;5002596;28;20030;-81
2023/02/21 12:19:23;;;;;;;18.50;2.10;;;;;;;19.22;24.23;100275.81;5008211;28;20038;-80
2023/02/21 12:21:55;;;;;;;21.55;2.08;;;;;;;19.29;24.27;100280.16;5003712;28;20514;-81
2023/02/21 12:24:34;;;;;;;8.80;2.10;;;;;;;18.92;24.24;100262.97;5000318;28;20150;-79
2023/02/21 12:27:10;;;;;;;9.52;2.03;;;;;;;18.85;24.39;100243.13;5002282;28;20049;-83
2023/02/21 12:29:48;;;;;;;;;;;;;;;18.93;24.10;100270.06;5009161;28;20116;-83
2023/02/21 12:32:37;;;;;;;11.23;2.95;;;;;;;18.92;24.01;100252.88;5000210;28;19952;-82
2023/02/21 12:35:26;;;;;;;14.25;3.20;;;;;;;19.16;24.14;100269.41;4997108;28;20057;-82
2023/02/21 12:38:23;;;;;;;8.13;3.30;;;;;;;19.03;23.60;100248.56;5005937;28;20411;-82
2023/02/21 12:40:56;;;;;;;15.32;3.00;;;;;;;18.85;23.55;100251.31;5011835;28;20083;-80
2023/02/21 12:43:49;;;;;;;8.82;2.47;;;;;;;18.99;23.76;100231.03;5015577;28;20104;-84
2023/02/21 12:46:18;;;;;;;8.57;3.00;;;;;;;18.77;23.85;100238.78;4975874;28;20034;-83
2023/02/21 12:48:50;;;;;;;7.53;2.75;;;;;;;18.72;24.06;100247.59;5000398;28;20029;-81
2023/02/21 12:51:20;;;;;;;6.25;2.90;;;;;;;18.79;23.96;100244.84;5004768;28;20038;-79
2023/02/21 12:54:02;;;;;;;5.72;2.78;;;;;;;18.60;24.06;100245.84;4980936;28;20446;-82
2023/02/21 12:56:32;;;;;;;13.15;3.15;;;;;;;18.58;24.23;100250.69;4989585;28;20227;-84
2023/02/21 12:59:26;;;;;;;11.60;2.72;;;;;;;18.45;24.16;100218.97;4975935;28;20066;-82
2023/02/21 13:02:02;;;;;;;8.82;2.65;;;;;;;18.32;24.18;100220.75;4992654;28;20120;-83
2023/02/21 13:04:58;;;;;;;16.15;2.35;;;;;;;18.40;23.91;100235.13;4987738;28;20131;-83
2023/02/21 13:07:37;;;;;;;9.73;2.30;;;;;;;18.27;23.67;100223.31;4995506;28;20088;-83
2023/02/21 13:10:13;;;;;;;9.57;2.35;;;;;;;18.24;23.75;100220.19;4997615;28;20042;-90
2023/02/21 13:13:02;;;;;;;8.88;2.17;;;;;;;18.12;24.36;100214.63;5005174;28;20026;-80
2023/02/21 13:15:29;;;;;;;16.08;1.83;;;;;;;18.20;24.14;100205.38;5005558;28;20053;-82
2023/02/21 13:18:05;;;;;;;13.50;2.25;;;;;;;18.21;24.15;100228.81;4983295;28;20533;-83
2023/02/21 13:20:38;;;;;;;7.45;1.60;;;;;;;18.03;24.34;100218.72;4998673;28;20042;-82
2023/02/21 13:26:57;;;;;;;10.40;1.70;;;;;;;18.07;24.69;100230.78;4996081;28;20096;-82
2023/02/21 13:29:35;;;;;;;5.82;1.70;;;;;;;17.88;24.74;100199.97;4998671;28;20490;-82
2023/02/21 13:32:10;;;;;;;6.40;2.75;;;;;;;18.05;24.73;100225.59;4980677;28;20073;-86
2023/02/21 13:34:38;;;;;;;6.68;1.90;;;;;;;18.03;24.65;100243.19;4974133;28;20505;-86
2023/02/21 13:37:25;;;;;;;9.35;1.80;;;;;;;18.17;24.55;100233.88;5002009;28;20088;-83
2023/02/21 13:40:06;;;;;;;5.65;2.20;;;;;;;18.20;24.64;100213.53;5004051;28;20046;-92
2023/02/21 13:42:37;;;;;;;4.53;1.88;;;;;;;18.28;24.55;100235.84;4992151;28;20042;-91
2023/02/21 13:45:22;;;;;;;6.65;2.03;;;;;;;18.34;24.60;100232.25;4995738;28;20038;-88
2023/02/21 13:48:04;;;;;;;5.93;1.85;;;;;;;18.49;24.67;100231.91;5005509;28;20169;-90
2023/02/21 13:50:53;;;;;;;6.20;2.15;;;;;;;18.48;24.68;100205.75;5012014;28;20033;-94
2023/02/21 13:54:12;;;;;;;9.35;1.90;;;;;;;18.67;24.70;100233.84;5009835;28;20118;-92
2023/02/21 13:56:43;;;;;;;8.25;1.98;;;;;;;18.64;24.80;100220.69;4993276;28;20070;-83
2023/02/21 13:59:33;;;;;;;6.47;2.33;;;;;;;18.81;24.75;100229.13;4995536;28;21737;-83
2023/02/21 14:02:31;;;;;;;13.05;2.05;;;;;;;18.74;24.80;100207.38;4996394;28;20037;-85
2023/02/21 14:05:11;;;;;;;8.43;2.47;;;;;;;18.72;24.83;100197.75;4994189;28;20540;-83
2023/02/21 14:07:45;;;;;;;7.85;2.30;;;;;;;18.96;24.99;100215.13;5005438;28;20022;-83
2023/02/21 14:10:38;;;;;;;19.50;4.70;;;;;;;19.02;24.89;100225.13;4999599;28;20042;-82
2023/02/21 14:13:07;;;;;;;8.88;2.40;;;;;;;19.00;24.86;100215.50;5022966;28;20046;-82
2023/02/21 14:15:58;;;;;;;13.38;2.50;;;;;;;18.97;25.07;100214.06;5018098;28;20060;-83
2023/02/21 14:18:46;;;;;;;8.32;2.20;;;;;;;19.10;24.94;100216.63;5006092;28;20128;-81